createdAt,value
2023-01-13T00:01:28.894Z,100169.50
2023-01-13T00:03:56.988Z,100172.00
2023-01-13T00:06:26.021Z,100160.59
2023-01-13T00:08:54.077Z,100157.28
2023-01-13T00:11:22.319Z,100155.75
2023-01-13T00:13:49.285Z,100153.03
2023-01-13T00:16:18.550Z,100149.59
2023-01-13T00:18:46.272Z,100142.69
2023-01-13T00:21:22.056Z,100155.66
2023-01-13T00:23:49.683Z,100146.28
2023-01-13T00:26:26.313Z,100146.13
2023-01-13T00:28:59.818Z,100139.25
2023-01-13T00:31:28.685Z,100146.38
2023-01-13T00:34:00.251Z,100145.44
2023-01-13T00:36:27.807Z,100148.03
2023-01-13T00:38:54.645Z,100142.97
2023-01-13T00:41:23.660Z,100121.22
2023-01-13T00:43:50.944Z,100126.47
2023-01-13T00:46:21.363Z,100118.47
2023-01-13T00:48:48.571Z,100117.66
2023-01-13T00:51:19.198Z,100120.97
2023-01-13T00:53:49.816Z,100111.09
2023-01-13T00:56:40.845Z,100111.09
2023-01-13T00:59:13.242Z,100113.97
2023-01-13T01:01:40.853Z,100092.56
2023-01-13T01:04:08.029Z,100102.19
2023-01-13T01:06:34.891Z,100091.03
2023-01-13T01:09:02.142Z,100096.00
2023-01-13T01:11:31.895Z,100081.16
2023-01-13T01:14:02.229Z,100084.72
2023-01-13T01:16:31.343Z,100081.41
2023-01-13T01:18:59.577Z,100086.22
2023-01-13T01:21:28.327Z,100107.34
2023-01-13T01:23:55.651Z,100096.44
2023-01-13T01:26:25.401Z,100103.47
2023-01-13T01:28:52.680Z,100097.53
2023-01-13T01:31:24.658Z,100088.16
2023-01-13T01:33:55.371Z,100071.81
2023-01-13T01:36:26.283Z,100089.50
2023-01-13T01:38:53.215Z,100090.31
2023-01-13T01:41:24.358Z,100085.94
2023-01-13T01:44:02.328Z,100083.47
2023-01-13T01:46:37.053Z,100070.78
2023-01-13T01:49:12.397Z,100079.81
2023-01-13T01:52:00.514Z,100063.56
2023-01-13T01:54:52.658Z,100051.88
2023-01-13T01:57:26.229Z,100050.09
2023-01-13T01:59:53.448Z,100056.38
2023-01-13T02:02:20.592Z,100062.44
2023-01-13T02:04:51.961Z,100065.75
2023-01-13T02:07:23.787Z,100077.00
2023-01-13T02:09:51.863Z,100073.69
2023-01-13T02:12:31.801Z,100064.22
2023-01-13T02:15:35.981Z,100059.47
2023-01-13T02:18:20.340Z,100050.66
2023-01-13T02:21:11.042Z,100054.81
2023-01-13T02:24:42.888Z,100048.22
2023-01-13T02:27:54.614Z,100044.41
2023-01-13T02:30:59.593Z,100035.50
2023-01-13T02:33:42.336Z,100049.16
2023-01-13T02:36:31.915Z,100038.69
2023-01-13T02:39:27.091Z,100040.09
2023-01-13T02:42:29.012Z,100031.13
2023-01-13T02:45:10.721Z,100017.13
2023-01-13T02:47:40.152Z,100023.97
2023-01-13T02:50:21.377Z,100020.44
2023-01-13T02:53:12.678Z,100009.97
2023-01-13T02:55:50.004Z,100000.47
2023-01-13T02:58:22.612Z,100000.63
2023-01-13T03:00:49.687Z,99995.63
2023-01-13T03:03:16.640Z,100008.56
2023-01-13T03:05:46.401Z,100006.78
2023-01-13T03:08:47.844Z,99993.47
2023-01-13T03:11:17.733Z,99990.03
2023-01-13T03:13:52.942Z,99993.72
2023-01-13T03:16:28.933Z,100004.06
2023-01-13T03:19:21.553Z,99991.69
2023-01-13T03:22:22.247Z,99992.50
2023-01-13T03:25:00.992Z,99993.34
2023-01-13T03:27:41.653Z,99982.66
2023-01-13T03:30:17.253Z,99978.22
2023-01-13T03:32:53.018Z,99984.97
2023-01-13T03:35:30.958Z,99987.59
2023-01-13T03:38:13.692Z,99997.53
2023-01-13T03:40:52.915Z,99986.13
2023-01-13T03:43:57.426Z,99971.84
2023-01-13T03:46:36.002Z,99971.31
2023-01-13T03:49:07.215Z,99977.25
2023-01-13T03:51:38.440Z,99977.00
2023-01-13T03:54:10.412Z,99975.75
2023-01-13T03:56:47.544Z,99975.63
2023-01-13T03:59:19.970Z,99964.34
2023-01-13T04:02:00.170Z,99964.22
2023-01-13T04:04:54.953Z,99957.34
2023-01-13T04:07:36.176Z,99966.16
2023-01-13T04:10:07.983Z,99961.03
2023-01-13T04:13:00.883Z,99962.56
2023-01-13T04:15:43.462Z,99960.78
2023-01-13T04:18:26.091Z,99964.34
2023-01-13T04:20:58.231Z,99963.53
2023-01-13T04:23:25.730Z,99954.72
2023-01-13T04:25:52.578Z,99954.72
2023-01-13T04:28:20.880Z,99953.19
2023-01-13T04:30:48.185Z,99955.00
2023-01-13T04:33:16.585Z,99959.41
2023-01-13T04:35:45.165Z,99960.34
2023-01-13T04:38:15.215Z,99959.13
2023-01-13T04:40:42.577Z,99955.56
2023-01-13T04:43:09.740Z,99953.19
2023-01-13T04:45:36.871Z,99955.00
2023-01-13T04:48:04.126Z,99945.34
2023-01-13T04:50:31.014Z,99953.63
2023-01-13T04:52:57.966Z,99944.97
2023-01-13T04:55:25.222Z,99948.72
2023-01-13T04:57:52.328Z,99943.34
2023-01-13T05:00:22.007Z,99933.88
2023-01-13T05:02:52.220Z,99938.56
2023-01-13T05:05:19.352Z,99936.88
2023-01-13T05:07:46.464Z,99940.88
2023-01-13T05:10:13.773Z,99938.81
2023-01-13T05:12:59.582Z,99941.16
2023-01-13T05:15:45.196Z,99928.34
2023-01-13T05:18:12.682Z,99916.28
2023-01-13T05:20:39.516Z,99921.94
2023-01-13T05:23:25.166Z,99928.25
2023-01-13T05:25:52.147Z,99925.06
2023-01-13T05:28:18.978Z,99913.16
2023-01-13T05:30:49.150Z,99914.53
2023-01-13T05:33:18.633Z,99913.59
2023-01-13T05:35:47.208Z,99916.19
2023-01-13T05:38:15.085Z,99920.44
2023-01-13T05:41:00.941Z,99932.28
2023-01-13T05:43:28.217Z,99930.34
2023-01-13T05:46:06.080Z,99925.97
2023-01-13T05:48:43.780Z,99922.38
2023-01-13T05:51:12.980Z,99935.56
2023-01-13T05:53:40.810Z,99935.28
2023-01-13T05:56:09.312Z,99942.03
2023-01-13T05:58:36.454Z,99938.47
2023-01-13T06:01:07.638Z,99949.03
2023-01-13T06:03:34.805Z,99929.50
2023-01-13T06:06:03.798Z,99941.88
2023-01-13T06:08:32.007Z,99949.25
2023-01-13T06:10:58.921Z,99958.06
2023-01-13T06:13:25.886Z,99966.44
2023-01-13T06:15:59.595Z,99966.00
2023-01-13T06:18:27.227Z,99968.19
2023-01-13T06:20:54.174Z,99977.94
2023-01-13T06:23:21.083Z,99980.00
2023-01-13T06:26:16.353Z,99990.59
2023-01-13T06:28:43.231Z,99994.97
2023-01-13T06:31:11.363Z,100015.88
2023-01-13T06:33:45.092Z,100046.13
2023-01-13T06:36:22.311Z,100067.03
2023-01-13T06:38:54.138Z,100059.13
2023-01-13T06:41:40.391Z,100056.66
2023-01-13T06:44:07.485Z,100067.34
2023-01-13T06:46:35.535Z,100057.03
2023-01-13T06:49:02.416Z,100055.63
2023-01-13T06:51:29.251Z,100059.63
2023-01-13T06:53:56.084Z,100058.00
2023-01-13T06:56:22.875Z,100048.72
2023-01-13T06:58:49.699Z,100048.16
2023-01-13T07:01:16.630Z,100050.22
2023-01-13T07:03:43.435Z,100053.91
2023-01-13T07:06:10.312Z,100064.72
2023-01-13T07:08:37.256Z,100063.91
2023-01-13T07:11:04.433Z,100060.84
2023-01-13T07:13:49.583Z,100066.31
2023-01-13T07:16:16.398Z,100066.56
2023-01-13T07:18:43.296Z,100063.50
2023-01-13T07:21:13.163Z,100070.88
2023-01-13T07:23:41.747Z,100067.34
2023-01-13T07:26:10.629Z,100068.41
2023-01-13T07:28:38.611Z,100070.19
2023-01-13T07:31:12.417Z,100071.94
2023-01-13T07:33:39.544Z,100082.53
2023-01-13T07:36:08.246Z,100088.00
2023-01-13T07:38:35.410Z,100085.63
2023-01-13T07:41:21.277Z,100067.50
2023-01-13T07:43:48.569Z,100076.53
2023-01-13T07:46:15.752Z,100089.69
2023-01-13T07:48:42.745Z,100077.72
2023-01-13T07:51:11.993Z,100079.75
2023-01-13T07:53:39.404Z,100053.44
2023-01-13T07:56:07.623Z,100036.94
2023-01-13T07:58:36.556Z,100062.19
2023-01-13T08:01:14.254Z,100084.03
2023-01-13T08:03:41.467Z,100117.94
2023-01-13T08:06:09.435Z,100144.25
2023-01-13T08:08:36.909Z,100152.44
2023-01-13T08:11:06.326Z,100146.66
2023-01-13T08:13:33.872Z,100149.13
2023-01-13T08:16:07.830Z,100148.78
2023-01-13T08:18:36.675Z,100156.38
2023-01-13T08:21:13.197Z,100151.81
2023-01-13T08:23:44.711Z,100145.84
2023-01-13T08:26:17.315Z,100150.59
2023-01-13T08:28:45.034Z,100165.16
2023-01-13T08:31:16.530Z,100178.72
2023-01-13T08:33:43.969Z,100175.19
2023-01-13T08:36:12.642Z,100176.41
2023-01-13T08:38:41.097Z,100178.25
2023-01-13T08:41:36.832Z,100188.09
2023-01-13T08:44:04.864Z,100189.00
2023-01-13T08:46:31.696Z,100194.69
2023-01-13T08:48:58.605Z,100191.00
2023-01-13T08:51:25.422Z,100200.47
2023-01-13T08:53:52.327Z,100199.41
2023-01-13T08:56:19.251Z,100201.91
2023-01-13T08:58:46.187Z,100204.63
2023-01-13T09:01:20.061Z,100186.09
2023-01-13T09:03:47.044Z,100182.53
2023-01-13T09:06:13.897Z,100185.34
2023-01-13T09:08:41.516Z,100192.69
2023-01-13T09:11:38.137Z,100197.81
2023-01-13T09:14:05.034Z,100199.84
2023-01-13T09:16:31.872Z,100214.69
2023-01-13T09:18:58.736Z,100213.00
2023-01-13T09:21:26.404Z,100213.03
2023-01-13T09:23:53.202Z,100213.66
2023-01-13T09:26:21.792Z,100213.84
2023-01-13T09:28:48.698Z,100224.03
2023-01-13T09:31:15.649Z,100235.25
2023-01-13T09:34:01.066Z,100235.47
2023-01-13T09:36:27.925Z,100235.91
2023-01-13T09:38:54.806Z,100229.78
2023-01-13T09:41:42.908Z,100240.06
2023-01-13T09:44:20.329Z,100236.94
2023-01-13T09:46:53.305Z,100248.78
2023-01-13T09:49:39.424Z,100266.56
2023-01-13T09:52:26.663Z,100269.78
2023-01-13T09:55:05.911Z,100282.97
2023-01-13T09:57:38.039Z,100293.13
2023-01-13T10:00:24.146Z,100281.97
2023-01-13T10:03:27.943Z,100278.72
2023-01-13T10:06:49.824Z,100281.22
2023-01-13T10:09:26.230Z,100276.09
2023-01-13T10:12:16.507Z,100278.50
2023-01-13T10:14:53.160Z,100272.56
2023-01-13T10:17:44.904Z,100266.25
2023-01-13T10:20:33.268Z,100254.84
2023-01-13T10:23:03.359Z,100256.25
2023-01-13T10:26:14.887Z,100250.47
2023-01-13T10:28:50.867Z,100263.94
2023-01-13T10:31:19.771Z,100252.69
2023-01-13T10:33:46.671Z,100247.13
2023-01-13T10:36:22.827Z,100246.69
2023-01-13T10:38:51.019Z,100274.78
2023-01-13T10:41:26.386Z,100257.31
2023-01-13T10:44:02.254Z,100281.94
2023-01-13T10:46:33.435Z,100278.22
2023-01-13T10:49:32.631Z,100288.38
2023-01-13T10:52:01.943Z,100284.78
2023-01-13T10:54:29.905Z,100287.53
2023-01-13T10:57:20.302Z,100293.63
2023-01-13T10:59:48.363Z,100285.31
2023-01-13T11:02:32.017Z,100284.16
2023-01-13T11:05:12.409Z,100286.69
2023-01-13T11:07:46.468Z,100278.38
2023-01-13T11:10:27.435Z,100278.06
2023-01-13T11:13:13.082Z,100292.59
2023-01-13T11:16:05.672Z,100293.59
2023-01-13T11:18:51.800Z,100296.28
2023-01-13T11:21:30.149Z,100294.53
2023-01-13T11:24:15.078Z,100295.78
2023-01-13T11:26:57.032Z,100288.69
2023-01-13T11:30:02.457Z,100281.78
2023-01-13T11:32:34.336Z,100280.94
2023-01-13T11:35:09.976Z,100277.41
2023-01-13T11:37:42.135Z,100278.66
2023-01-13T11:40:24.446Z,100282.56
2023-01-13T11:43:19.982Z,100291.09
2023-01-13T11:45:58.701Z,100288.47
2023-01-13T11:48:30.459Z,100296.16
2023-01-13T11:51:15.104Z,100309.03
2023-01-13T11:53:58.777Z,100300.19
2023-01-13T11:56:40.301Z,100307.00
2023-01-13T11:59:54.499Z,100298.59
2023-01-13T12:02:50.820Z,100298.13
2023-01-13T12:05:47.885Z,100300.91
2023-01-13T12:08:26.059Z,100294.25
2023-01-13T12:11:04.650Z,100297.81
2023-01-13T12:14:07.445Z,100299.50
2023-01-13T12:16:35.970Z,100298.97
2023-01-13T12:19:30.528Z,100302.75
2023-01-13T12:22:26.862Z,100293.88
2023-01-13T12:25:17.844Z,100292.41
2023-01-13T12:27:53.715Z,100289.50
2023-01-13T12:30:42.744Z,100276.41
2023-01-13T12:34:06.630Z,100275.88
2023-01-13T12:37:12.068Z,100289.78
2023-01-13T12:40:06.544Z,100282.31
2023-01-13T12:43:10.943Z,100273.78
2023-01-13T12:45:37.843Z,100280.22
2023-01-13T12:48:06.141Z,100296.63
2023-01-13T12:50:32.916Z,100289.28
2023-01-13T12:53:28.849Z,100281.44
2023-01-13T12:56:27.400Z,100272.31
2023-01-13T12:59:17.288Z,100263.59
2023-01-13T13:01:47.012Z,100256.81
2023-01-13T13:04:49.478Z,100259.25
2023-01-13T13:07:26.625Z,100250.56
2023-01-13T13:10:01.373Z,100251.78
2023-01-13T13:12:49.781Z,100264.41
2023-01-13T13:15:25.571Z,100285.44
2023-01-13T13:18:17.304Z,100287.72
2023-01-13T13:21:08.900Z,100265.88
2023-01-13T13:23:48.255Z,100266.81
2023-01-13T13:26:37.806Z,100275.50
2023-01-13T13:29:22.733Z,100280.91
2023-01-13T13:32:23.889Z,100298.00
2023-01-13T13:35:08.193Z,100301.13
2023-01-13T13:38:44.674Z,100318.34
2023-01-13T13:41:38.847Z,100316.38
2023-01-13T13:44:49.032Z,100332.94
2023-01-13T13:47:16.269Z,100329.97
2023-01-13T13:49:56.374Z,100338.91
2023-01-13T13:52:30.445Z,100330.94
2023-01-13T13:55:08.349Z,100347.13
2023-01-13T13:57:42.312Z,100343.94
2023-01-13T14:00:22.926Z,100366.88
2023-01-13T14:02:58.979Z,100368.75
2023-01-13T14:05:35.222Z,100371.72
2023-01-13T14:08:09.060Z,100367.22
2023-01-13T14:10:39.407Z,100380.03
2023-01-13T14:13:27.465Z,100371.50
2023-01-13T14:16:06.758Z,100368.66
2023-01-13T14:18:47.352Z,100363.66
2023-01-13T14:21:24.345Z,100369.09
2023-01-13T14:24:11.318Z,100363.91
2023-01-13T14:26:38.239Z,100352.13
2023-01-13T14:29:05.572Z,100356.97
2023-01-13T14:31:33.333Z,100358.78
2023-01-13T14:34:31.776Z,100344.41
2023-01-13T14:36:51.251Z,100359.13
2023-01-13T14:39:17.998Z,100365.28
2023-01-13T14:41:48.867Z,100362.22
2023-01-13T14:44:22.151Z,100357.09
2023-01-13T14:46:49.118Z,100353.03
2023-01-13T14:49:38.017Z,100368.34
2023-01-13T14:52:19.701Z,100372.50
2023-01-13T14:55:10.731Z,100380.22
2023-01-13T14:57:41.414Z,100388.03
2023-01-13T15:00:14.200Z,100390.44
2023-01-13T15:02:57.325Z,100388.53
2023-01-13T15:05:32.746Z,100389.97
2023-01-13T15:08:12.114Z,100390.09
2023-01-13T15:10:55.421Z,100402.91
2023-01-13T15:13:51.974Z,100420.84
2023-01-13T15:16:28.471Z,100426.41
2023-01-13T15:18:56.711Z,100425.22
2023-01-13T15:21:24.058Z,100430.66
2023-01-13T15:23:51.177Z,100434.34
2023-01-13T15:26:31.575Z,100425.34
2023-01-13T15:29:00.733Z,100448.91
2023-01-13T15:31:28.387Z,100445.00
2023-01-13T15:33:55.494Z,100454.00
2023-01-13T15:36:31.884Z,100463.00
2023-01-13T15:39:00.996Z,100459.91
2023-01-13T15:41:46.657Z,100455.84
2023-01-13T15:44:34.740Z,100465.06
2023-01-13T15:47:08.019Z,100456.78
2023-01-13T15:49:42.382Z,100452.72
2023-01-13T15:52:25.138Z,100470.47
2023-01-13T15:54:54.048Z,100471.66
2023-01-13T15:57:34.434Z,100480.50
2023-01-13T16:00:15.946Z,100481.94
2023-01-13T16:02:44.402Z,100475.69
2023-01-13T16:05:11.637Z,100481.94
2023-01-13T16:07:39.011Z,100478.41
2023-01-13T16:10:17.163Z,100487.06
2023-01-13T16:12:44.036Z,100480.91
2023-01-13T16:15:14.748Z,100493.22
2023-01-13T16:17:43.496Z,100498.44
2023-01-13T16:20:15.977Z,100518.44
2023-01-13T16:22:43.064Z,100514.59
2023-01-13T16:25:21.185Z,100531.56
2023-01-13T16:27:48.191Z,100540.69
2023-01-13T16:30:33.046Z,100552.38
2023-01-13T16:33:00.136Z,100549.94
2023-01-13T16:35:28.548Z,100560.84
2023-01-13T16:37:58.225Z,100566.06
2023-01-13T16:40:32.291Z,100579.03
2023-01-13T16:43:01.701Z,100585.50
2023-01-13T16:45:29.055Z,100572.91
2023-01-13T16:47:56.077Z,100575.00
2023-01-13T16:50:40.921Z,100589.31
2023-01-13T16:53:11.974Z,100599.69
2023-01-13T16:55:41.992Z,100586.88
2023-01-13T16:58:18.748Z,100597.63
2023-01-13T17:00:47.400Z,100604.81
2023-01-13T17:03:15.714Z,100601.78
2023-01-13T17:05:46.659Z,100608.78
2023-01-13T17:08:17.667Z,100595.44
2023-01-13T17:10:45.860Z,100603.50
2023-01-13T17:13:16.381Z,100596.09
2023-01-13T17:15:45.635Z,100608.50
2023-01-13T17:18:13.445Z,100595.47
2023-01-13T17:20:40.956Z,100609.56
2023-01-13T17:23:07.746Z,100603.59
2023-01-13T17:25:34.572Z,100604.53
2023-01-13T17:28:01.394Z,100616.63
2023-01-13T17:30:28.283Z,100615.59
2023-01-13T17:32:55.125Z,100625.41
2023-01-13T17:35:24.528Z,100626.97
2023-01-13T17:37:52.887Z,100643.63
2023-01-13T17:40:20.319Z,100640.63
2023-01-13T17:42:47.125Z,100640.63
2023-01-13T17:45:14.036Z,100644.25
2023-01-13T17:47:40.852Z,100653.03
2023-01-13T17:50:08.382Z,100655.63
2023-01-13T17:52:35.270Z,100660.13
2023-01-13T17:55:02.202Z,100656.88
2023-01-13T17:57:29.015Z,100674.28
2023-01-13T17:59:58.151Z,100670.13
2023-01-13T18:02:26.137Z,100677.81
2023-01-13T18:04:53.039Z,100674.06
2023-01-13T18:07:19.856Z,100677.41
2023-01-13T18:09:46.672Z,100676.56
2023-01-13T18:12:13.566Z,100686.16
2023-01-13T18:14:40.911Z,100698.25
2023-01-13T18:17:07.851Z,100697.63
2023-01-13T18:19:52.971Z,100708.66
2023-01-13T18:22:38.666Z,100717.94
2023-01-13T18:25:27.264Z,100724.84
2023-01-13T18:27:54.081Z,100721.28
2023-01-13T18:30:21.031Z,100723.88
2023-01-13T18:32:47.837Z,100734.84
2023-01-13T18:35:14.654Z,100732.78
2023-01-13T18:37:44.691Z,100745.06
2023-01-13T18:40:13.555Z,100748.59
2023-01-13T18:42:56.236Z,100762.38
2023-01-13T18:45:30.303Z,100766.53
2023-01-13T18:48:01.125Z,100766.53
2023-01-13T18:50:28.307Z,100768.41
2023-01-13T18:52:55.563Z,100764.88
2023-01-13T18:55:22.535Z,100768.31
2023-01-13T18:57:50.379Z,100774.25
2023-01-13T19:00:20.408Z,100783.94
2023-01-13T19:02:48.562Z,100773.53
2023-01-13T19:05:15.597Z,100778.97
2023-01-13T19:07:50.231Z,100785.38
2023-01-13T19:10:17.958Z,100785.63
2023-01-13T19:12:44.878Z,100787.56
2023-01-13T19:15:11.883Z,100784.84
2023-01-13T19:17:38.901Z,100790.91
2023-01-13T19:20:06.499Z,100795.19
2023-01-13T19:22:35.023Z,100787.25
2023-01-13T19:25:03.431Z,100796.66
2023-01-13T19:27:30.924Z,100791.34
2023-01-13T19:30:00.200Z,100803.34
2023-01-13T19:32:28.544Z,100810.13
2023-01-13T19:34:59.090Z,100815.03
2023-01-13T19:37:30.388Z,100825.25
2023-01-13T19:39:59.274Z,100819.09
2023-01-13T19:42:45.249Z,100825.88
2023-01-13T19:45:28.991Z,100836.22
2023-01-13T19:47:57.175Z,100827.53
2023-01-13T19:50:24.860Z,100830.25
2023-01-13T19:52:51.868Z,100824.44
2023-01-13T19:55:19.743Z,100832.31
2023-01-13T19:57:46.727Z,100844.44
2023-01-13T20:00:18.220Z,100856.72
2023-01-13T20:02:49.017Z,100869.78
2023-01-13T20:05:21.254Z,100850.06
2023-01-13T20:07:50.182Z,100843.56
2023-01-13T20:10:19.390Z,100852.41
2023-01-13T20:12:46.272Z,100839.91
2023-01-13T20:15:13.591Z,100832.66
2023-01-13T20:17:41.514Z,100832.34
2023-01-13T20:20:10.597Z,100821.38
2023-01-13T20:22:39.501Z,100829.69
2023-01-13T20:25:09.265Z,100828.19
2023-01-13T20:27:36.922Z,100830.03
2023-01-13T20:30:09.295Z,100830.25
2023-01-13T20:32:37.064Z,100821.72
2023-01-13T20:35:04.289Z,100832.31
2023-01-13T20:37:31.164Z,100841.81
2023-01-13T20:40:01.345Z,100847.19
2023-01-13T20:42:29.086Z,100842.09
2023-01-13T20:45:00.235Z,100846.63
2023-01-13T20:47:29.281Z,100837.06
2023-01-13T20:49:56.148Z,100856.03
2023-01-13T20:52:23.172Z,100859.56
2023-01-13T20:54:50.062Z,100870.00
2023-01-13T20:57:17.000Z,100878.34
2023-01-13T20:59:43.909Z,100874.91
2023-01-13T21:02:15.989Z,100883.53
2023-01-13T21:04:43.711Z,100881.03
2023-01-13T21:07:10.632Z,100881.25
2023-01-13T21:09:37.929Z,100884.66
2023-01-13T21:12:24.204Z,100877.81
2023-01-13T21:15:09.575Z,100877.88
2023-01-13T21:17:55.567Z,100873.44
2023-01-13T21:20:22.607Z,100874.81
2023-01-13T21:22:49.610Z,100878.16
2023-01-13T21:25:17.990Z,100880.75
2023-01-13T21:27:44.890Z,100892.84
2023-01-13T21:30:14.771Z,100898.25
2023-01-13T21:32:43.450Z,100900.66
2023-01-13T21:35:11.198Z,100903.16
2023-01-13T21:37:39.372Z,100895.47
2023-01-13T21:40:11.221Z,100898.13
2023-01-13T21:42:56.675Z,100885.97
2023-01-13T21:45:42.328Z,100893.78
2023-01-13T21:48:09.639Z,100893.59
2023-01-13T21:50:38.137Z,100906.69
2023-01-13T21:53:07.261Z,100903.88
2023-01-13T21:55:36.723Z,100907.41
2023-01-13T21:58:13.403Z,100907.72
2023-01-13T22:00:42.807Z,100923.72
2023-01-13T22:03:12.009Z,100926.31
2023-01-13T22:05:39.639Z,100921.94
2023-01-13T22:08:07.559Z,100933.41
2023-01-13T22:10:35.161Z,100923.16
2023-01-13T22:13:21.531Z,100914.59
2023-01-13T22:15:48.736Z,100905.22
2023-01-13T22:18:17.971Z,100901.03
2023-01-13T22:20:45.100Z,100898.53
2023-01-13T22:23:12.068Z,100908.19
2023-01-13T22:25:38.998Z,100896.03
2023-01-13T22:28:08.545Z,100902.44
2023-01-13T22:30:35.382Z,100898.13
2023-01-13T22:33:02.164Z,100906.22
2023-01-13T22:35:29.010Z,100915.72
2023-01-13T22:37:55.839Z,100935.09
2023-01-13T22:40:22.635Z,100935.91
2023-01-13T22:42:49.487Z,100947.25
2023-01-13T22:45:16.448Z,100945.50
2023-01-13T22:47:43.271Z,100949.00
2023-01-13T22:50:12.493Z,100950.13
2023-01-13T22:52:39.724Z,100950.13
2023-01-13T22:55:07.437Z,100952.00
2023-01-13T22:57:46.655Z,100959.81
2023-01-13T23:00:15.000Z,100969.31
2023-01-13T23:02:42.039Z,100970.78
2023-01-13T23:05:09.040Z,100976.75
2023-01-13T23:07:36.161Z,100977.47
2023-01-13T23:10:04.184Z,100974.66
2023-01-13T23:12:31.113Z,100964.19
2023-01-13T23:14:57.947Z,100961.66
2023-01-13T23:17:24.861Z,100969.66
2023-01-13T23:19:51.788Z,100981.84
2023-01-13T23:22:18.643Z,100971.53
2023-01-13T23:24:46.130Z,100977.59
2023-01-13T23:27:13.020Z,100982.13
2023-01-13T23:29:39.951Z,100970.22
2023-01-13T23:32:06.771Z,100986.97
2023-01-13T23:34:33.675Z,100981.19
2023-01-13T23:37:00.537Z,100986.38
2023-01-13T23:39:27.361Z,100990.56
2023-01-13T23:41:54.815Z,100987.06
2023-01-13T23:44:21.703Z,101002.56
2023-01-13T23:46:48.521Z,100998.38
2023-01-13T23:49:15.359Z,101007.13
2023-01-13T23:51:42.230Z,101005.19
2023-01-13T23:54:09.117Z,100996.53
2023-01-13T23:56:39.229Z,100992.16
2023-01-13T23:59:06.515Z,100987.81
